Impacts METAR Board
IDs:

KDFW - Dallas-Ft Worth Intl, TX, US

Updated at: 0700 UTC 24 Sep 2018
Potential Impact None Slight Moderate High
Time 23/19Z 23/20Z 23/21Z 23/22Z 23/23Z 24/00Z 24/01Z 24/02Z 24/03Z 24/04Z 24/05Z 24/06Z 24/07Z
Temp70 71 72 72 70 70 70 70 71 70 71 71 71
Dewpt67 67 67 67 68 68 68 68 68 69 68 68 68
Altim29.92 29.89 29.88 29.87 29.87 29.87 29.87 29.89 29.90 29.90 29.90 29.89 29.89
VIS8 10 10 10 10 10 10 10 10 10 10 10 10
CIG7 10 12 11 7 7 6 6 6 5 8 8 7
CoverOVCOVCOVCOVCOVCOVCOVCOVCOVCOVCOVCOVCOVC
FltCatIFRMVFRMVFRMVFRIFRIFRIFRIFRIFRIFRIFRIFRIFR
WX-DZ------------------------
WDir1020303503603601036020020100
WSpd7 7 6 8 7 7 8 4 5 0 4 3 0
WGst-- -- -- -- -- -- -- -- -- -- -- -- --
Raw hourly METARs
KDFW 231853Z 01007KT 8SM -DZ OVC007 21/19 A2992 RMK AO2 RAE13DZB17E40B50 SLP126 P0000 T02110194 $
KDFW 231953Z 02007KT 10SM OVC010 22/19 A2989 RMK AO2 DZE36 SLP114 P0000 T02170194 $
KDFW 232053Z 03006KT 10SM OVC012 22/19 A2988 RMK AO2 SLP111 60000 T02220194 56020 $
KDFW 232153Z 35008KT 10SM OVC011 22/19 A2987 RMK AO2 SLP109 T02220194 $
KDFW 232253Z 36007KT 10SM BKN007 OVC012 21/20 A2987 RMK AO2 SLP109 T02110200 $
KDFW 232353Z 36007KT 10SM BKN007 OVC012 21/20 A2987 RMK AO2 SLP108 60000 T02110200 10222 20200 56003 $
KDFW 240053Z 01008KT 10SM BKN006 OVC014 21/20 A2987 RMK AO2 SLP108 T02110200 $
KDFW 240153Z 36004KT 10SM BKN006 OVC015 21/20 A2989 RMK AO2 SLP114 T02110200 $
KDFW 240253Z 02005KT 10SM OVC006 22/20 A2990 RMK AO2 SLP118 T02170200 53010 $
KDFW 240353Z 00000KT 10SM BKN005 OVC011 21/21 A2990 RMK AO2 DZB12E41 SLP117 P0000 T02110206 $
KDFW 240453Z 02004KT 10SM BKN008 OVC011 22/20 A2990 RMK AO2 SLP119 T02170200 $
KDFW 240553Z 01003KT 10SM OVC008 22/20 A2989 RMK AO2 SLP115 60000 T02170200 10217 20211 402220189 58003 $
KDFW 240653Z 00000KT 10SM OVC007 22/20 A2989 RMK AO2 SLP113 T02170200 $



Page loaded:  07:32 UTC  |   12:32 AM Pacific  |   01:32 AM Mountain  |   02:32 AM Central  |   03:32 AM Eastern

 

ADVISORIES

FORECASTS

FORECASTS

OBSERVATIONS

USER TOOLS

ABOUT US